createdAt,value
2022-10-05T00:00:55.128Z,10.86
2022-10-05T00:03:33.797Z,10.83
2022-10-05T00:06:07.736Z,10.81
2022-10-05T00:08:42.474Z,10.92
2022-10-05T00:11:18.916Z,10.77
2022-10-05T00:13:52.965Z,10.72
2022-10-05T00:16:28.411Z,10.67
2022-10-05T00:19:01.906Z,10.63
2022-10-05T00:21:35.453Z,10.59
2022-10-05T00:24:11.725Z,10.54
2022-10-05T00:26:52.881Z,10.51
2022-10-05T00:29:32.308Z,10.45
2022-10-05T00:32:06.003Z,10.41
2022-10-05T00:34:47.854Z,10.36
2022-10-05T00:37:21.506Z,10.31
2022-10-05T00:40:00.189Z,10.29
2022-10-05T00:42:48.851Z,10.27
2022-10-05T00:45:27.617Z,10.22
2022-10-05T00:48:09.752Z,10.22
2022-10-05T00:50:59.898Z,10.20
2022-10-05T00:53:45.418Z,10.14
2022-10-05T00:56:38.352Z,10.15
2022-10-05T00:59:27.157Z,10.13
2022-10-05T01:02:09.816Z,10.10
2022-10-05T01:04:50.399Z,10.07
2022-10-05T01:07:33.964Z,10.07
2022-10-05T01:10:16.049Z,10.05
2022-10-05T01:13:00.485Z,10.04
2022-10-05T01:15:40.623Z,10.03
2022-10-05T01:18:19.046Z,10.02
2022-10-05T01:21:01.108Z,10.05
2022-10-05T01:24:21.973Z,10.12
2022-10-05T01:27:16.943Z,10.15
2022-10-05T01:29:58.171Z,10.16
2022-10-05T01:32:37.119Z,10.16
2022-10-05T01:35:21.328Z,10.18
2022-10-05T01:38:03.751Z,10.20
2022-10-05T01:40:42.723Z,10.17
2022-10-05T01:43:25.123Z,10.17
2022-10-05T01:46:08.305Z,10.16
2022-10-05T01:48:49.964Z,10.17
2022-10-05T01:51:34.790Z,10.16
2022-10-05T01:54:20.043Z,10.14
2022-10-05T01:57:03.570Z,10.11
2022-10-05T01:59:52.198Z,10.08
2022-10-05T02:02:30.331Z,10.05
2022-10-05T02:05:11.993Z,10.02
2022-10-05T02:07:52.629Z,9.98
2022-10-05T02:10:35.305Z,9.96
2022-10-05T02:13:15.794Z,9.93
2022-10-05T02:15:55.345Z,9.91
2022-10-05T02:21:25.049Z,9.85
2022-10-05T02:24:05.552Z,9.84
2022-10-05T02:26:40.773Z,9.82
2022-10-05T02:29:21.486Z,9.80
2022-10-05T02:32:00.377Z,9.79
2022-10-05T02:34:39.741Z,9.80
2022-10-05T02:37:34.492Z,9.79
2022-10-05T02:40:19.607Z,9.76
2022-10-05T02:43:02.004Z,9.77
2022-10-05T02:45:47.513Z,9.76
2022-10-05T02:48:36.002Z,9.77
2022-10-05T02:51:22.397Z,9.79
2022-10-05T02:54:09.127Z,9.80
2022-10-05T02:56:49.444Z,9.81
2022-10-05T02:59:30.210Z,9.79
2022-10-05T03:02:16.541Z,9.77
2022-10-05T03:05:00.222Z,9.74
2022-10-05T03:07:41.462Z,9.69
2022-10-05T03:10:26.815Z,9.67
2022-10-05T03:13:07.693Z,9.63
2022-10-05T03:15:51.801Z,9.62
2022-10-05T03:18:41.523Z,9.62
2022-10-05T03:21:30.461Z,9.62
2022-10-05T03:24:35.574Z,9.66
2022-10-05T03:27:24.497Z,9.64
2022-10-05T03:30:05.917Z,9.65
2022-10-05T03:32:52.427Z,9.68
2022-10-05T03:35:29.608Z,9.80
2022-10-05T03:38:12.314Z,9.72
2022-10-05T03:40:51.933Z,9.71
2022-10-05T03:43:48.663Z,9.76
2022-10-05T03:46:33.412Z,9.74
2022-10-05T03:49:15.587Z,9.75
2022-10-05T03:51:53.270Z,9.74
2022-10-05T03:54:34.387Z,9.73
2022-10-05T03:57:13.604Z,9.72
2022-10-05T03:59:57.777Z,9.70
2022-10-05T04:02:35.491Z,9.68
2022-10-05T04:05:18.574Z,9.68
2022-10-05T04:07:57.759Z,9.68
2022-10-05T04:10:41.051Z,9.69
2022-10-05T04:13:25.258Z,9.71
2022-10-05T04:16:05.429Z,9.71
2022-10-05T04:18:44.889Z,9.72
2022-10-05T04:21:23.896Z,9.75
2022-10-05T04:24:05.743Z,9.74
2022-10-05T04:26:42.014Z,9.75
2022-10-05T04:29:24.403Z,9.75
2022-10-05T04:32:13.246Z,9.77
2022-10-05T04:35:00.866Z,9.76
2022-10-05T04:37:46.501Z,9.72
2022-10-05T04:40:37.535Z,9.72
2022-10-05T04:43:16.804Z,9.70
2022-10-05T04:46:08.493Z,9.69
2022-10-05T04:49:10.060Z,9.69
2022-10-05T04:51:52.831Z,9.66
2022-10-05T04:54:41.379Z,9.67
2022-10-05T04:57:19.720Z,9.65
2022-10-05T05:00:05.817Z,9.69
2022-10-05T05:02:53.952Z,9.69
2022-10-05T05:06:04.988Z,9.72
2022-10-05T05:09:02.737Z,9.78
2022-10-05T05:11:49.826Z,9.82
2022-10-05T05:14:48.105Z,9.94
2022-10-05T05:17:35.011Z,9.95
2022-10-05T05:20:21.088Z,9.96
2022-10-05T05:23:07.263Z,9.97
2022-10-05T05:25:52.296Z,9.97
2022-10-05T05:28:37.209Z,9.99
2022-10-05T05:31:21.491Z,10.03
2022-10-05T05:34:03.373Z,10.05
2022-10-05T05:36:50.394Z,10.08
2022-10-05T05:39:29.896Z,10.09
2022-10-05T05:42:21.454Z,10.13
2022-10-05T05:44:58.925Z,10.11
2022-10-05T05:47:37.971Z,10.13
2022-10-05T05:50:32.593Z,10.19
2022-10-05T05:53:17.191Z,10.19
2022-10-05T05:56:19.538Z,10.23
2022-10-05T05:58:57.136Z,10.27
2022-10-05T06:01:35.672Z,10.34
2022-10-05T06:04:24.014Z,10.41
2022-10-05T06:06:59.373Z,10.61
2022-10-05T06:09:39.238Z,10.60
2022-10-05T06:12:24.235Z,10.71
2022-10-05T06:15:01.861Z,10.83
2022-10-05T06:17:40.369Z,10.97
2022-10-05T06:20:23.706Z,11.11
2022-10-05T06:23:03.248Z,11.26
2022-10-05T06:25:46.139Z,11.43
2022-10-05T06:28:21.598Z,11.57
2022-10-05T06:31:11.647Z,11.77
2022-10-05T06:33:52.522Z,11.95
2022-10-05T06:36:45.184Z,12.11
2022-10-05T06:40:00.067Z,12.27
2022-10-05T06:43:14.814Z,12.37
2022-10-05T06:46:24.257Z,12.40
2022-10-05T06:49:24.711Z,12.46
2022-10-05T06:52:26.748Z,12.54
2022-10-05T06:55:17.435Z,12.63
2022-10-05T06:58:06.764Z,12.71
2022-10-05T07:00:45.827Z,12.77
2022-10-05T07:03:29.223Z,12.85
2022-10-05T07:06:21.796Z,12.97
2022-10-05T07:09:19.869Z,13.05
2022-10-05T07:12:08.134Z,13.16
2022-10-05T07:15:03.944Z,13.32
2022-10-05T07:17:51.750Z,13.47
2022-10-05T07:20:34.676Z,13.62
2022-10-05T07:23:28.925Z,13.79
2022-10-05T07:26:08.763Z,13.83
2022-10-05T07:28:49.460Z,13.89
2022-10-05T07:31:34.789Z,13.92
2022-10-05T07:34:17.013Z,13.96
2022-10-05T07:37:14.832Z,14.01
2022-10-05T07:40:01.454Z,14.06
2022-10-05T07:42:52.280Z,14.09
2022-10-05T07:45:35.228Z,14.18
2022-10-05T07:48:20.764Z,14.33
2022-10-05T07:51:04.974Z,14.48
2022-10-05T07:53:44.550Z,14.73
2022-10-05T07:56:27.364Z,14.91
2022-10-05T07:59:06.992Z,14.97
2022-10-05T08:01:48.049Z,14.95
2022-10-05T08:04:25.965Z,14.93
2022-10-05T08:07:07.135Z,14.92
2022-10-05T08:09:47.230Z,14.91
2022-10-05T08:12:26.299Z,14.92
2022-10-05T08:15:04.955Z,14.96
2022-10-05T08:17:50.458Z,15.06
2022-10-05T08:20:41.792Z,15.20
2022-10-05T08:23:23.896Z,15.29
2022-10-05T08:26:22.786Z,15.41
2022-10-05T08:29:12.822Z,15.43
2022-10-05T08:31:50.758Z,15.45
2022-10-05T08:34:32.265Z,15.50
2022-10-05T08:37:12.579Z,15.64
2022-10-05T08:40:05.666Z,15.78
2022-10-05T08:43:02.245Z,15.95
2022-10-05T08:46:20.270Z,16.14
2022-10-05T08:49:23.038Z,16.64
2022-10-05T08:52:29.272Z,17.38
2022-10-05T08:55:47.634Z,17.79
2022-10-05T08:59:13.034Z,18.04
2022-10-05T09:02:07.592Z,18.20
2022-10-05T09:05:19.757Z,18.23
2022-10-05T09:08:21.170Z,18.22
2022-10-05T09:11:15.186Z,18.24
2022-10-05T09:14:09.298Z,18.20
2022-10-05T09:17:17.834Z,17.83
2022-10-05T09:20:16.035Z,17.56
2022-10-05T09:23:19.116Z,17.23
2022-10-05T09:26:01.102Z,16.98
2022-10-05T09:28:45.076Z,16.95
2022-10-05T09:31:52.400Z,17.22
2022-10-05T09:35:29.371Z,17.56
2022-10-05T09:38:20.649Z,17.76
2022-10-05T09:41:39.968Z,18.08
2022-10-05T09:44:37.461Z,18.42
2022-10-05T09:47:50.805Z,18.67
2022-10-05T09:51:03.979Z,18.96
2022-10-05T09:54:19.857Z,19.33
2022-10-05T09:57:18.154Z,20.01
2022-10-05T10:00:16.646Z,20.91
2022-10-05T10:03:14.929Z,21.57
2022-10-05T10:06:20.406Z,21.89
2022-10-05T10:09:15.980Z,21.85
2022-10-05T10:12:09.772Z,21.93
2022-10-05T10:15:27.314Z,22.24
2022-10-05T10:18:29.802Z,22.94
2022-10-05T10:21:42.333Z,23.41
2022-10-05T10:24:39.865Z,23.69
2022-10-05T10:27:36.115Z,23.67
2022-10-05T10:30:56.090Z,23.67
2022-10-05T10:33:56.601Z,23.08
2022-10-05T10:36:51.428Z,22.93
2022-10-05T10:39:40.561Z,22.91
2022-10-05T10:42:37.000Z,23.28
2022-10-05T10:45:28.824Z,24.49
2022-10-05T10:48:05.193Z,25.71
2022-10-05T10:51:11.971Z,26.61
2022-10-05T10:54:15.996Z,27.21
2022-10-05T10:57:04.564Z,27.64
2022-10-05T11:00:23.042Z,27.45
2022-10-05T11:03:11.257Z,26.81
2022-10-05T11:06:31.477Z,26.02
2022-10-05T11:09:26.140Z,25.19
2022-10-05T11:12:22.345Z,24.44
2022-10-05T11:15:34.118Z,23.62
2022-10-05T11:18:16.396Z,22.75
2022-10-05T11:21:19.629Z,21.99
2022-10-05T11:24:31.462Z,21.37
2022-10-05T11:27:25.028Z,20.81
2022-10-05T11:30:35.565Z,20.31
2022-10-05T11:33:44.467Z,19.94
2022-10-05T11:36:46.906Z,19.65
2022-10-05T11:39:39.435Z,19.38
2022-10-05T11:42:43.356Z,19.20
2022-10-05T11:45:36.294Z,19.05
2022-10-05T11:48:36.703Z,18.93
2022-10-05T11:51:44.771Z,18.82
2022-10-05T11:55:09.416Z,18.69
2022-10-05T11:57:55.379Z,18.57
2022-10-05T12:00:42.356Z,18.52
2022-10-05T12:03:36.778Z,18.50
2022-10-05T12:06:26.911Z,18.56
2022-10-05T12:09:30.405Z,18.63
2022-10-05T12:12:16.046Z,18.65
2022-10-05T12:15:00.630Z,18.65
2022-10-05T12:17:43.360Z,18.70
2022-10-05T12:20:22.163Z,18.76
2022-10-05T12:23:04.399Z,18.80
2022-10-05T12:25:44.298Z,18.80
2022-10-05T12:28:22.442Z,18.86
2022-10-05T12:31:15.452Z,19.09
2022-10-05T12:33:58.599Z,19.33
2022-10-05T12:37:03.098Z,19.59
2022-10-05T12:39:45.834Z,19.93
2022-10-05T12:42:31.660Z,20.20
2022-10-05T12:45:32.580Z,20.43
2022-10-05T12:48:20.949Z,20.48
2022-10-05T12:51:01.544Z,20.42
2022-10-05T12:53:49.411Z,20.30
2022-10-05T12:56:33.306Z,20.16
2022-10-05T12:59:19.316Z,20.04
2022-10-05T13:02:00.419Z,19.92
2022-10-05T13:04:42.907Z,19.80
2022-10-05T13:07:41.209Z,19.72
2022-10-05T13:10:29.431Z,19.62
2022-10-05T13:13:17.895Z,19.48
2022-10-05T13:16:06.398Z,19.40
2022-10-05T13:18:55.653Z,19.31
2022-10-05T13:21:41.172Z,19.21
2022-10-05T13:24:23.359Z,19.14
2022-10-05T13:27:08.641Z,19.05
2022-10-05T13:29:52.305Z,18.97
2022-10-05T13:32:33.585Z,18.90
2022-10-05T13:35:39.164Z,18.86
2022-10-05T13:38:30.499Z,18.75
2022-10-05T13:41:15.498Z,18.66
2022-10-05T13:44:00.292Z,18.59
2022-10-05T13:46:39.715Z,18.54
2022-10-05T13:49:29.589Z,18.52
2022-10-05T13:52:18.100Z,18.51
2022-10-05T13:54:59.982Z,18.50
2022-10-05T13:57:47.686Z,18.54
2022-10-05T14:00:26.597Z,18.56
2022-10-05T14:03:02.310Z,18.57
2022-10-05T14:05:38.137Z,18.58
2022-10-05T14:08:18.570Z,18.59
2022-10-05T14:10:53.948Z,18.64
2022-10-05T14:13:35.971Z,18.67
2022-10-05T14:16:21.790Z,18.74
2022-10-05T14:18:58.801Z,18.74
2022-10-05T14:21:33.761Z,18.75
2022-10-05T14:24:43.082Z,18.77
2022-10-05T14:27:23.556Z,18.73
2022-10-05T14:30:01.283Z,18.68
2022-10-05T14:32:51.946Z,18.68
2022-10-05T14:35:27.713Z,18.60
2022-10-05T14:38:09.160Z,18.55
2022-10-05T14:40:45.502Z,18.49
2022-10-05T14:43:24.292Z,18.43
2022-10-05T14:46:01.580Z,18.39
2022-10-05T14:48:42.972Z,18.34
2022-10-05T14:51:32.149Z,18.31
2022-10-05T14:54:27.910Z,18.29
2022-10-05T14:57:25.390Z,18.26
2022-10-05T15:00:12.742Z,18.20
2022-10-05T15:03:22.790Z,18.18
2022-10-05T15:06:00.429Z,18.09
2022-10-05T15:09:00.847Z,18.09
2022-10-05T15:11:43.570Z,18.03
2022-10-05T15:14:21.540Z,17.97
2022-10-05T15:16:59.056Z,17.93
2022-10-05T15:19:45.028Z,17.93
2022-10-05T15:22:33.239Z,17.89
2022-10-05T15:25:19.592Z,17.84
2022-10-05T15:28:00.956Z,17.77
2022-10-05T15:30:39.599Z,17.70
2022-10-05T15:33:19.549Z,17.66
2022-10-05T15:36:20.164Z,17.68
2022-10-05T15:39:03.981Z,17.59
2022-10-05T15:41:53.074Z,17.55
2022-10-05T15:44:40.347Z,17.52
2022-10-05T15:47:20.436Z,17.50
2022-10-05T15:50:03.577Z,17.45
2022-10-05T15:52:44.628Z,17.41
2022-10-05T15:55:30.107Z,17.36
2022-10-05T15:58:32.426Z,17.34
2022-10-05T16:01:11.653Z,17.24
2022-10-05T16:03:51.540Z,17.18
2022-10-05T16:06:56.828Z,17.15
2022-10-05T16:09:45.189Z,17.08
2022-10-05T16:12:26.504Z,17.03
2022-10-05T16:15:16.974Z,17.00
2022-10-05T16:18:07.558Z,16.98
2022-10-05T16:20:51.365Z,16.95
2022-10-05T16:23:35.592Z,16.91
2022-10-05T16:26:19.735Z,16.87
2022-10-05T16:29:04.194Z,16.85
2022-10-05T16:31:47.284Z,16.81
2022-10-05T16:34:32.854Z,16.79
2022-10-05T16:37:14.211Z,16.74
2022-10-05T16:39:58.526Z,16.74
2022-10-05T16:42:46.526Z,16.74
2022-10-05T16:45:44.689Z,16.70
2022-10-05T16:48:26.149Z,16.66
2022-10-05T16:51:14.083Z,16.64
2022-10-05T16:54:01.807Z,16.60
2022-10-05T16:56:42.682Z,16.58
2022-10-05T16:59:43.333Z,16.59
2022-10-05T17:02:30.402Z,16.56
2022-10-05T17:05:21.232Z,16.53
2022-10-05T17:08:10.340Z,16.51
2022-10-05T17:10:58.363Z,16.49
2022-10-05T17:14:06.694Z,16.47
2022-10-05T17:16:54.670Z,16.40
2022-10-05T17:19:46.787Z,16.36
2022-10-05T17:22:27.600Z,16.26
2022-10-05T17:25:11.671Z,16.20
2022-10-05T17:27:54.135Z,16.12
2022-10-05T17:30:48.584Z,16.06
2022-10-05T17:33:29.197Z,15.97
2022-10-05T17:36:38.732Z,15.93
2022-10-05T17:39:16.439Z,15.83
2022-10-05T17:41:50.434Z,15.76
2022-10-05T17:44:28.326Z,15.71
2022-10-05T17:47:04.171Z,15.67
2022-10-05T17:50:10.056Z,15.64
2022-10-05T17:53:02.585Z,15.57
2022-10-05T17:55:48.347Z,15.54
2022-10-05T17:59:01.188Z,15.54
2022-10-05T18:01:38.316Z,15.48
2022-10-05T18:04:34.575Z,15.52
2022-10-05T18:07:23.941Z,15.52
2022-10-05T18:10:25.936Z,15.53
2022-10-05T18:13:45.583Z,15.54
2022-10-05T18:16:56.267Z,15.56
2022-10-05T18:19:32.552Z,15.50
2022-10-05T18:22:27.942Z,15.50
2022-10-05T18:25:10.582Z,15.50
2022-10-05T18:28:07.096Z,15.51
2022-10-05T18:30:59.469Z,15.50
2022-10-05T18:33:50.726Z,15.50
2022-10-05T18:36:40.634Z,15.48
2022-10-05T18:39:24.486Z,15.48
2022-10-05T18:42:08.840Z,15.59
2022-10-05T18:44:47.541Z,15.44
2022-10-05T18:47:31.437Z,15.38
2022-10-05T18:50:18.815Z,15.34
2022-10-05T18:53:03.480Z,15.29
2022-10-05T18:55:43.445Z,15.21
2022-10-05T18:58:26.135Z,15.16
2022-10-05T19:01:33.402Z,15.14
2022-10-05T19:04:22.434Z,15.05
2022-10-05T19:07:07.346Z,14.99
2022-10-05T19:09:58.598Z,14.94
2022-10-05T19:12:44.394Z,14.91
2022-10-05T19:15:28.930Z,14.88
2022-10-05T19:18:26.445Z,14.86
2022-10-05T19:21:07.605Z,14.80
2022-10-05T19:23:56.722Z,14.81
2022-10-05T19:26:53.945Z,14.81
2022-10-05T19:29:41.349Z,14.82
2022-10-05T19:32:27.831Z,14.80
2022-10-05T19:35:19.909Z,14.81
2022-10-05T19:38:15.309Z,14.79
2022-10-05T19:40:59.949Z,14.79
2022-10-05T19:43:50.776Z,14.77
2022-10-05T19:46:35.785Z,14.74
2022-10-05T19:49:12.179Z,14.71
2022-10-05T19:51:49.913Z,14.69
2022-10-05T19:54:25.317Z,14.67
2022-10-05T19:57:03.538Z,14.64
2022-10-05T19:59:40.627Z,14.61
2022-10-05T20:02:17.179Z,14.59
2022-10-05T20:04:55.167Z,14.55
2022-10-05T20:07:28.821Z,14.53
2022-10-05T20:10:18.874Z,14.64
2022-10-05T20:13:00.361Z,14.49
2022-10-05T20:15:52.873Z,14.44
2022-10-05T20:18:58.640Z,14.43
2022-10-05T20:21:47.628Z,14.39
2022-10-05T20:24:23.720Z,14.32
2022-10-05T20:27:13.864Z,14.30
2022-10-05T20:29:49.541Z,14.27
2022-10-05T20:32:26.381Z,14.26
2022-10-05T20:35:06.944Z,14.24
2022-10-05T20:37:43.083Z,14.22
2022-10-05T20:40:17.810Z,14.21
2022-10-05T20:43:00.468Z,14.20
2022-10-05T20:45:33.998Z,14.17
2022-10-05T20:48:07.677Z,14.16
2022-10-05T20:50:45.068Z,14.13
2022-10-05T20:53:20.274Z,14.11
2022-10-05T20:56:04.716Z,14.09
2022-10-05T20:58:38.416Z,14.08
2022-10-05T21:01:18.482Z,14.04
2022-10-05T21:03:52.285Z,14.01
2022-10-05T21:06:28.766Z,14.11
2022-10-05T21:09:03.850Z,13.98
2022-10-05T21:11:37.336Z,13.93
2022-10-05T21:14:11.660Z,13.91
2022-10-05T21:16:51.373Z,13.88
2022-10-05T21:19:25.023Z,13.87
2022-10-05T21:21:59.293Z,13.96
2022-10-05T21:24:35.519Z,13.84
2022-10-05T21:27:11.408Z,13.79
2022-10-05T21:29:45.524Z,13.75
2022-10-05T21:32:19.006Z,13.73
2022-10-05T21:34:54.777Z,13.72
2022-10-05T21:37:28.251Z,13.69
2022-10-05T21:40:03.208Z,13.68
2022-10-05T21:42:36.762Z,13.66
2022-10-05T21:45:11.510Z,13.65
2022-10-05T21:47:45.018Z,13.62
2022-10-05T21:50:18.658Z,13.61
2022-10-05T21:52:52.013Z,13.71
2022-10-05T21:55:39.208Z,13.61
2022-10-05T21:58:14.598Z,13.56
2022-10-05T22:00:48.264Z,13.54
2022-10-05T22:03:21.744Z,13.65
2022-10-05T22:05:58.046Z,13.53
2022-10-05T22:08:32.507Z,13.63
2022-10-05T22:11:14.087Z,13.51
2022-10-05T22:13:52.310Z,13.46
2022-10-05T22:16:31.573Z,13.43
2022-10-05T22:19:06.527Z,13.40
2022-10-05T22:21:41.952Z,13.38
2022-10-05T22:24:15.796Z,13.36
2022-10-05T22:26:51.983Z,13.36
2022-10-05T22:29:25.610Z,13.34
2022-10-05T22:31:58.912Z,13.43
2022-10-05T22:34:35.067Z,13.31
2022-10-05T22:37:13.124Z,13.27
2022-10-05T22:39:46.727Z,13.23
2022-10-05T22:42:21.688Z,13.21
2022-10-05T22:44:55.242Z,13.21
2022-10-05T22:47:28.716Z,13.19
2022-10-05T22:50:05.290Z,13.17
2022-10-05T22:52:42.536Z,13.14
2022-10-05T22:55:18.884Z,13.14
2022-10-05T22:57:53.946Z,13.12
2022-10-05T23:00:40.335Z,13.11
2022-10-05T23:03:14.195Z,13.11
2022-10-05T23:05:47.679Z,13.10
2022-10-05T23:08:21.257Z,13.09
2022-10-05T23:10:54.716Z,13.07
2022-10-05T23:13:29.836Z,13.07
2022-10-05T23:16:07.952Z,13.07
2022-10-05T23:18:42.016Z,13.06
2022-10-05T23:21:15.808Z,13.06
2022-10-05T23:23:51.346Z,13.06
2022-10-05T23:26:26.367Z,13.06
2022-10-05T23:29:01.280Z,13.06
2022-10-05T23:31:37.001Z,13.06
2022-10-05T23:34:10.475Z,13.05
2022-10-05T23:36:43.933Z,13.03
2022-10-05T23:39:17.368Z,13.04
2022-10-05T23:41:50.843Z,13.02
2022-10-05T23:44:25.764Z,13.00
2022-10-05T23:46:59.221Z,12.96
2022-10-05T23:49:32.680Z,12.95
2022-10-05T23:52:06.145Z,12.93
2022-10-05T23:54:39.614Z,12.91
2022-10-05T23:57:17.429Z,12.88
2022-10-05T23:59:52.428Z,12.85
